Time,TemperatureF,DewpointF,PressureIn,WindDirection,WindDirectionDegrees,WindSpeedMPH,WindSpeedGustMPH,Humidity,HourlyPrecipIn,Conditions,Clouds,dailyrainin,SoftwareType,DateUTC
2013-04-09 00:10:00,44.1,-7.0,29.88,West,270,1.6,-999.0,11,-99.99,,,0.00,Acu-Link.com,2013-04-09 04:10:00,
2013-04-09 00:25:00,44.1,-31.9,29.89,WNW,292,3.1,-999.0,3,-99.99,,,0.00,Acu-Link.com,2013-04-09 04:25:00,
2013-04-09 00:41:00,44.2,44.0,29.89,NE,45,1.1,-999.0,99,-99.99,,,0.00,Acu-Link.com,2013-04-09 04:41:00,
2013-04-09 01:11:00,44.1,43.8,29.90,SW,225,1.6,-999.0,99,-99.99,,,0.00,Acu-Link.com,2013-04-09 05:11:00,
2013-04-09 01:26:00,43.9,43.6,29.91,NW,315,3.8,-999.0,99,-99.99,,,0.00,Acu-Link.com,2013-04-09 05:26:00,
2013-04-09 01:42:00,43.5,43.3,29.90,NW,315,6.3,-999.0,99,-99.99,,,0.00,Acu-Link.com,2013-04-09 05:42:00,
2013-04-09 01:57:00,43.2,42.9,29.91,WNW,292,6.3,-999.0,99,-99.99,,,0.00,Acu-Link.com,2013-04-09 05:57:00,
2013-04-09 02:12:00,43.2,42.9,29.91,SW,225,3.1,-999.0,99,-99.99,,,0.00,Acu-Link.com,2013-04-09 06:12:00,
2013-04-09 02:27:00,43.2,42.9,29.92,NNW,337,5.8,-999.0,99,-99.99,,,0.00,Acu-Link.com,2013-04-09 06:27:00,
2013-04-09 02:42:00,43.3,43.1,29.92,NW,315,4.3,-999.0,99,-99.99,,,0.00,Acu-Link.com,2013-04-09 06:42:00,
2013-04-09 02:58:00,43.2,42.9,29.91,NW,315,3.8,-999.0,99,-99.99,,,0.00,Acu-Link.com,2013-04-09 06:58:00,
2013-04-09 03:13:00,43.0,42.7,29.91,NW,315,4.7,-999.0,99,-99.99,,,0.00,Acu-Link.com,2013-04-09 07:13:00,
2013-04-09 03:28:00,42.8,42.5,29.92,North,0,1.6,-999.0,99,-99.99,,,0.00,Acu-Link.com,2013-04-09 07:28:00,
2013-04-09 03:43:00,43.0,42.7,29.92,North,0,3.1,-999.0,99,-99.99,,,0.00,Acu-Link.com,2013-04-09 07:43:00,
2013-04-09 04:15:00,43.2,42.9,29.92,NNW,337,3.8,-999.0,99,-99.99,,,0.00,Acu-Link.com,2013-04-09 08:15:00,
2013-04-09 04:30:00,43.2,42.9,29.92,NNW,337,2.7,-999.0,99,-99.99,,,0.00,Acu-Link.com,2013-04-09 08:30:00,
2013-04-09 04:45:00,43.2,42.9,29.93,West,270,0.0,-999.0,99,-99.99,,,0.00,Acu-Link.com,2013-04-09 08:45:00,
2013-04-09 05:00:00,43.2,42.9,29.93,NE,45,0.0,-999.0,99,-99.99,,,0.00,Acu-Link.com,2013-04-09 09:00:00,
2013-04-09 05:15:00,43.2,42.9,29.94,East,90,0.0,-999.0,99,-99.99,,,0.00,Acu-Link.com,2013-04-09 09:15:00,
2013-04-09 05:30:00,43.0,42.7,29.94,East,90,2.2,-999.0,99,-99.99,,,0.00,Acu-Link.com,2013-04-09 09:30:00,
2013-04-09 05:46:00,42.8,42.5,29.95,NNW,337,1.6,-999.0,99,-99.99,,,0.00,Acu-Link.com,2013-04-09 09:46:00,
2013-04-09 06:16:00,42.8,42.5,29.97,ENE,67,2.2,-999.0,99,-99.99,,,0.00,Acu-Link.com,2013-04-09 10:16:00,
2013-04-09 06:31:00,42.8,42.5,29.96,ENE,67,3.1,-999.0,99,-99.99,,,0.00,Acu-Link.com,2013-04-09 10:31:00,
2013-04-09 07:02:00,42.4,42.2,29.96,East,90,2.2,-999.0,99,-99.99,,,0.00,Acu-Link.com,2013-04-09 11:02:00,
2013-04-09 07:17:00,42.4,42.2,29.96,ESE,112,2.7,-999.0,99,-99.99,,,0.00,Acu-Link.com,2013-04-09 11:17:00,
2013-04-09 07:32:00,42.6,42.4,29.97,ESE,112,2.7,-999.0,99,-99.99,,,0.00,Acu-Link.com,2013-04-09 11:32:00,
2013-04-09 07:47:00,43.0,42.7,29.96,ESE,112,6.3,-999.0,99,-99.99,,,0.00,Acu-Link.com,2013-04-09 11:47:00,
2013-04-09 08:02:00,43.2,42.9,29.96,ESE,112,2.7,-999.0,99,-99.99,,,0.00,Acu-Link.com,2013-04-09 12:02:00,
2013-04-09 08:17:00,43.3,43.1,29.96,East,90,5.8,-999.0,99,-99.99,,,0.00,Acu-Link.com,2013-04-09 12:17:00,
2013-04-09 08:33:00,43.7,43.4,29.96,East,90,2.7,-999.0,99,-99.99,,,0.00,Acu-Link.com,2013-04-09 12:33:00,
2013-04-09 08:48:00,44.6,12.7,29.96,East,90,7.4,-999.0,27,-99.99,,,0.00,Acu-Link.com,2013-04-09 12:48:00,
2013-04-09 09:03:00,45.1,27.1,29.96,ESE,112,3.8,-999.0,49,-99.99,,,0.00,Acu-Link.com,2013-04-09 13:03:00,
2013-04-09 09:18:00,47.1,38.6,29.95,SE,135,5.1,-999.0,72,-99.99,,,0.00,Acu-Link.com,2013-04-09 13:18:00,
2013-04-09 10:04:00,51.6,48.8,29.94,ESE,112,7.8,-999.0,90,-99.99,,,0.00,Acu-Link.com,2013-04-09 14:04:00,
2013-04-09 10:19:00,52.5,49.4,29.93,ESE,112,7.8,-999.0,89,-99.99,,,0.00,Acu-Link.com,2013-04-09 14:19:00,
2013-04-09 10:34:00,51.6,48.8,29.94,SSW,202,5.8,-999.0,90,-99.99,,,0.00,Acu-Link.com,2013-04-09 14:34:00,
2013-04-09 10:49:00,50.9,48.1,29.95,East,90,4.7,-999.0,90,-99.99,,,0.00,Acu-Link.com,2013-04-09 14:49:00,
2013-04-09 11:05:00,50.2,47.4,29.94,ESE,112,4.7,-999.0,90,-99.99,,,0.00,Acu-Link.com,2013-04-09 15:05:00,
2013-04-09 11:20:00,49.6,46.2,29.94,East,90,7.8,-999.0,88,-99.99,,,0.00,Acu-Link.com,2013-04-09 15:20:00,
2013-04-09 11:35:00,49.3,46.2,29.95,ESE,112,8.3,-999.0,89,-99.99,,,0.00,Acu-Link.com,2013-04-09 15:35:00,
2013-04-09 11:50:00,48.9,43.3,29.92,SSW,202,2.7,-999.0,81,-99.99,,,0.00,Acu-Link.com,2013-04-09 15:50:00,
2013-04-09 12:05:00,48.9,44.3,29.92,SE,135,5.8,-999.0,84,-99.99,,,0.00,Acu-Link.com,2013-04-09 16:05:00,
2013-04-09 12:21:00,48.4,42.8,29.93,ESE,112,7.8,-999.0,81,-99.99,,,0.00,Acu-Link.com,2013-04-09 16:21:00,
2013-04-09 12:36:00,49.1,44.8,29.89,SSW,202,3.8,-999.0,85,-99.99,,,0.00,Acu-Link.com,2013-04-09 16:36:00,
2013-04-09 12:51:00,48.9,44.3,29.88,SE,135,4.3,-999.0,84,-99.99,,,0.00,Acu-Link.com,2013-04-09 16:51:00,
2013-04-09 13:22:00,49.8,46.7,29.87,East,90,7.4,-999.0,89,-99.99,,,0.00,Acu-Link.com,2013-04-09 17:22:00,
2013-04-09 13:37:00,50.5,47.7,29.86,ESE,112,5.1,-999.0,90,-99.99,,,0.00,Acu-Link.com,2013-04-09 17:37:00,
2013-04-09 13:52:00,52.2,49.3,29.84,ESE,112,4.7,-999.0,90,-99.99,,,0.00,Acu-Link.com,2013-04-09 17:52:00,
2013-04-09 14:07:00,52.2,49.3,29.84,East,90,5.8,-999.0,90,-99.99,,,0.00,Acu-Link.com,2013-04-09 18:07:00,
2013-04-09 14:22:00,52.2,49.6,29.83,ESE,112,9.4,-999.0,91,-99.99,,,0.00,Acu-Link.com,2013-04-09 18:22:00,
2013-04-09 14:37:00,52.5,49.7,29.82,SSE,157,4.3,-999.0,90,-99.99,,,0.00,Acu-Link.com,2013-04-09 18:37:00,
2013-04-09 14:53:00,53.1,50.2,29.82,SE,135,12.5,-999.0,90,-99.99,,,0.00,Acu-Link.com,2013-04-09 18:53:00,
2013-04-09 15:08:00,53.6,51.0,29.81,ESE,112,3.1,-999.0,91,-99.99,,,0.00,Acu-Link.com,2013-04-09 19:08:00,
2013-04-09 15:23:00,54.3,51.4,29.80,ESE,112,5.8,-999.0,90,-99.99,,,0.00,Acu-Link.com,2013-04-09 19:23:00,
2013-04-09 15:38:00,54.7,51.8,29.80,ENE,67,6.3,-999.0,90,-99.99,,,0.00,Acu-Link.com,2013-04-09 19:38:00,
2013-04-09 16:24:00,55.4,52.5,29.79,ENE,67,0.0,-999.0,90,-99.99,,,0.00,Acu-Link.com,2013-04-09 20:24:00,
2013-04-09 16:39:00,55.0,52.2,29.79,East,90,0.0,-999.0,90,-99.99,,,0.00,Acu-Link.com,2013-04-09 20:39:00,
2013-04-09 16:55:00,53.6,51.0,29.78,East,90,4.3,-999.0,91,-99.99,,,0.00,Acu-Link.com,2013-04-09 20:55:00,
2013-04-09 17:10:00,53.1,47.4,29.77,South,180,0.0,-999.0,81,-99.99,,,0.01,Acu-Link.com,2013-04-09 21:10:00,
2013-04-09 17:25:00,52.5,41.9,29.77,West,270,0.0,-999.0,67,-99.99,,,0.01,Acu-Link.com,2013-04-09 21:25:00,
2013-04-09 17:40:00,52.5,39.5,29.77,ESE,112,0.0,-999.0,61,-99.99,,,0.01,Acu-Link.com,2013-04-09 21:40:00,
2013-04-09 17:55:00,52.3,43.9,29.77,South,180,0.0,-999.0,73,-99.99,,,0.01,Acu-Link.com,2013-04-09 21:55:00,
2013-04-09 18:11:00,52.5,43.4,29.77,NW,315,0.0,-999.0,71,-99.99,,,0.01,Acu-Link.com,2013-04-09 22:11:00,
2013-04-09 18:26:00,53.6,48.6,29.78,East,90,0.0,-999.0,83,-99.99,,,0.01,Acu-Link.com,2013-04-09 22:26:00,
2013-04-09 18:41:00,53.6,48.9,29.78,SSE,157,1.1,-999.0,84,-99.99,,,0.01,Acu-Link.com,2013-04-09 22:41:00,
2013-04-09 18:57:00,53.2,47.2,29.79,ESE,112,0.0,-999.0,80,-99.99,,,0.01,Acu-Link.com,2013-04-09 22:57:00,
2013-04-09 19:12:00,53.1,49.3,29.78,NE,45,1.1,-999.0,87,-99.99,,,0.01,Acu-Link.com,2013-04-09 23:12:00,
2013-04-09 19:27:00,52.9,49.4,29.79,ESE,112,3.1,-999.0,88,-99.99,,,0.01,Acu-Link.com,2013-04-09 23:27:00,
2013-04-09 19:43:00,52.7,48.9,29.78,ENE,67,3.1,-999.0,87,-99.99,,,0.01,Acu-Link.com,2013-04-09 23:43:00,
2013-04-09 19:58:00,52.0,47.0,29.77,ESE,112,2.7,-999.0,83,-99.99,,,0.01,Acu-Link.com,2013-04-09 23:58:00,
2013-04-09 20:13:00,51.3,45.3,29.76,ESE,112,5.8,-999.0,80,-99.99,,,0.01,Acu-Link.com,2013-04-10 00:13:00,
2013-04-09 20:28:00,50.7,43.1,29.77,ESE,112,3.1,-999.0,75,-99.99,,,0.01,Acu-Link.com,2013-04-10 00:28:00,
2013-04-09 20:43:00,50.5,42.6,29.78,North,0,3.8,-999.0,74,-99.99,,,0.01,Acu-Link.com,2013-04-10 00:43:00,
2013-04-09 20:59:00,50.0,44.4,29.81,NNW,337,2.7,-999.0,81,-99.99,,,0.01,Acu-Link.com,2013-04-10 00:59:00,
2013-04-09 21:14:00,48.7,40.5,29.80,East,90,4.7,-999.0,73,-99.99,,,0.01,Acu-Link.com,2013-04-10 01:14:00,
2013-04-09 21:29:00,47.8,32.0,29.81,NNW,337,4.7,-999.0,54,-99.99,,,0.01,Acu-Link.com,2013-04-10 01:29:00,
2013-04-09 21:44:00,47.5,27.7,29.83,NW,315,4.7,-999.0,46,-99.99,,,0.01,Acu-Link.com,2013-04-10 01:44:00,
2013-04-09 21:59:00,47.5,25.5,29.84,NW,315,3.8,-999.0,42,-99.99,,,0.01,Acu-Link.com,2013-04-10 01:59:00,
2013-04-09 22:15:00,47.3,21.7,29.84,NNW,337,4.3,-999.0,36,-99.99,,,0.01,Acu-Link.com,2013-04-10 02:15:00,
2013-04-09 22:30:00,47.3,21.1,29.85,NNE,22,2.7,-999.0,35,-99.99,,,0.01,Acu-Link.com,2013-04-10 02:30:00,
2013-04-09 22:45:00,47.1,19.5,29.85,NNW,337,4.7,-999.0,33,-99.99,,,0.01,Acu-Link.com,2013-04-10 02:45:00,
2013-04-09 23:00:00,47.1,18.1,29.85,NNE,22,1.6,-999.0,31,-99.99,,,0.01,Acu-Link.com,2013-04-10 03:00:00,
2013-04-09 23:16:00,47.1,14.9,29.85,NE,45,4.7,-999.0,27,-99.99,,,0.01,Acu-Link.com,2013-04-10 03:16:00,
2013-04-09 23:46:00,46.9,13.9,29.85,NNW,337,4.3,-999.0,26,-99.99,,,0.01,Acu-Link.com,2013-04-10 03:46:00,